createdAt,value
2023-05-19T03:45:24.715Z,101113.03
2023-05-19T03:48:28.591Z,101113.03
2023-05-19T03:51:38.542Z,101117.75
2023-05-19T03:54:42.773Z,101119.38
2023-05-19T03:57:45.222Z,101116.59
2023-05-19T04:00:47.973Z,101126.25
2023-05-19T04:03:50.801Z,101122.75
2023-05-19T04:06:53.302Z,101118.25
2023-05-19T04:09:55.988Z,101124.87
2023-05-19T04:12:58.448Z,101116.72
2023-05-19T04:16:01.966Z,101119.81
2023-05-19T04:19:04.548Z,101119.81
2023-05-19T04:22:07.343Z,101125.78
2023-05-19T04:25:09.968Z,101122.75
2023-05-19T04:28:13.734Z,101131.25
2023-05-19T04:31:16.321Z,101124.47
2023-05-19T04:34:19.894Z,101126.47
2023-05-19T04:37:22.754Z,101130.53
2023-05-19T04:40:25.758Z,101132.75
2023-05-19T04:43:28.374Z,101134.91
2023-05-19T04:46:31.187Z,101135.69
2023-05-19T04:49:38.753Z,101135.47
2023-05-19T04:52:47.670Z,101139.91
2023-05-19T04:55:50.300Z,101139.31
2023-05-19T04:58:53.806Z,101140.62
2023-05-19T05:01:57.240Z,101134.53
2023-05-19T05:05:00.194Z,101142.16
2023-05-19T05:08:03.170Z,101135.56
2023-05-19T05:11:06.652Z,101144.50
2023-05-19T05:14:09.717Z,101153.62
2023-05-19T05:17:13.791Z,101151.44
2023-05-19T05:20:19.574Z,101149.03
2023-05-19T05:23:22.635Z,101155.53
2023-05-19T05:26:29.953Z,101158.09
2023-05-19T05:29:32.677Z,101159.69
2023-05-19T05:32:36.032Z,101164.84
2023-05-19T05:35:41.979Z,101154.28
2023-05-19T05:38:45.249Z,101153.38
2023-05-19T05:41:48.050Z,101150.12
2023-05-19T05:44:50.705Z,101157.97
2023-05-19T05:47:53.746Z,101160.56
2023-05-19T05:50:57.296Z,101151.16
2023-05-19T05:54:01.977Z,101161.03
2023-05-19T05:57:06.342Z,101156.84
2023-05-19T06:00:15.810Z,101155.66
2023-05-19T06:03:18.157Z,101149.78
2023-05-19T06:06:21.528Z,101155.81
2023-05-19T06:09:24.099Z,101161.88
2023-05-19T06:12:27.322Z,101161.09
2023-05-19T06:15:30.305Z,101168.09
2023-05-19T06:18:34.633Z,101161.00
2023-05-19T06:21:37.226Z,101165.63
2023-05-19T06:24:40.264Z,101160.91
2023-05-19T06:27:44.180Z,101168.72
2023-05-19T06:30:47.161Z,101167.06
2023-05-19T06:33:49.987Z,101172.63
2023-05-19T06:36:52.823Z,101178.50
2023-05-19T06:39:55.437Z,101175.69
2023-05-19T06:42:58.616Z,101186.63
2023-05-19T06:46:03.121Z,101189.59
2023-05-19T06:49:06.958Z,101193.75
2023-05-19T06:52:10.153Z,101192.69
2023-05-19T06:55:12.893Z,101194.97
2023-05-19T06:58:16.031Z,101194.44
2023-05-19T07:01:19.031Z,101195.19
2023-05-19T07:04:22.055Z,101205.06
2023-05-19T07:07:25.046Z,101204.19
2023-05-19T07:10:28.783Z,101199.44
2023-05-19T07:13:32.885Z,101192.81
2023-05-19T07:16:35.690Z,101189.53
2023-05-19T07:19:38.379Z,101198.09
2023-05-19T07:22:40.833Z,101193.56
2023-05-19T07:25:43.691Z,101191.56
2023-05-19T07:28:46.142Z,101187.56
2023-05-19T07:31:54.032Z,101185.06
2023-05-19T07:34:56.762Z,101180.62
2023-05-19T07:37:59.783Z,101171.09
2023-05-19T07:41:03.624Z,101175.22
2023-05-19T07:44:07.948Z,101177.91
2023-05-19T07:47:10.690Z,101171.50
2023-05-19T07:50:13.627Z,101174.50
2023-05-19T07:53:16.725Z,101164.81
2023-05-19T07:56:20.587Z,101177.56
2023-05-19T07:59:24.482Z,101168.13
2023-05-19T08:02:27.617Z,101162.91
2023-05-19T08:05:30.854Z,101162.13
2023-05-19T08:08:36.606Z,101162.87
2023-05-19T08:11:39.546Z,101164.53
2023-05-19T08:14:42.504Z,101149.59
2023-05-19T08:17:45.502Z,101148.66
2023-05-19T08:20:48.007Z,101154.16
2023-05-19T08:23:51.212Z,101148.34
2023-05-19T08:26:53.730Z,101156.97
2023-05-19T08:29:57.373Z,101151.53
2023-05-19T08:33:02.774Z,101156.19
2023-05-19T08:36:06.590Z,101146.34
2023-05-19T08:39:09.071Z,101147.06
2023-05-19T08:42:12.392Z,101145.78
2023-05-19T08:45:15.390Z,101146.47
2023-05-19T08:48:19.517Z,101156.00
2023-05-19T08:51:39.234Z,101151.13
2023-05-19T08:54:51.121Z,101154.00
2023-05-19T08:57:56.295Z,101147.94
2023-05-19T09:01:01.629Z,101151.78
2023-05-19T09:04:05.052Z,101144.94
2023-05-19T09:07:09.481Z,101142.28
2023-05-19T09:10:16.333Z,101139.78
2023-05-19T09:13:21.454Z,101137.75
2023-05-19T09:16:27.692Z,101140.56
2023-05-19T09:19:31.998Z,101135.19
2023-05-19T09:22:37.156Z,101147.81
2023-05-19T09:26:07.421Z,101141.81
2023-05-19T09:29:17.170Z,101145.22
2023-05-19T09:32:27.138Z,101141.13
2023-05-19T09:35:30.009Z,101136.41
2023-05-19T09:38:33.005Z,101139.69
2023-05-19T09:41:35.629Z,101132.63
2023-05-19T09:44:38.945Z,101132.97
2023-05-19T09:47:42.174Z,101123.28
2023-05-19T09:50:46.634Z,101127.72
2023-05-19T09:53:49.439Z,101120.91
2023-05-19T09:57:04.359Z,101121.09
2023-05-19T10:00:13.740Z,101118.22
2023-05-19T10:03:17.796Z,101113.41
2023-05-19T10:06:22.135Z,101110.59
2023-05-19T10:09:25.876Z,101106.25
2023-05-19T10:12:29.148Z,101105.09
2023-05-19T10:15:33.050Z,101100.97
2023-05-19T10:18:40.249Z,101094.41
2023-05-19T10:21:42.806Z,101100.53
2023-05-19T10:24:45.429Z,101094.37
2023-05-19T10:28:01.824Z,101097.56
2023-05-19T10:31:08.316Z,101084.91
2023-05-19T10:34:33.308Z,101088.84
2023-05-19T10:38:00.986Z,101085.91
2023-05-19T10:41:03.352Z,101091.06
2023-05-19T10:44:28.122Z,101088.91
2023-05-19T10:47:32.457Z,101081.28
2023-05-19T10:50:38.912Z,101080.00
2023-05-19T10:53:51.570Z,101078.50
2023-05-19T10:56:56.790Z,101077.44
2023-05-19T11:00:11.016Z,101070.22
2023-05-19T11:03:15.764Z,101073.78
2023-05-19T11:06:29.606Z,101061.56
2023-05-19T11:09:40.418Z,101063.09
2023-05-19T11:12:45.945Z,101060.00
2023-05-19T11:15:49.903Z,101063.91
2023-05-19T11:18:55.986Z,101059.69
2023-05-19T11:22:12.884Z,101058.94
2023-05-19T11:25:38.265Z,101052.91
2023-05-19T11:28:42.029Z,101060.84
2023-05-19T11:31:45.003Z,101050.47
2023-05-19T11:34:50.061Z,101054.97
2023-05-19T11:37:54.800Z,101051.53
2023-05-19T11:40:57.675Z,101048.69
2023-05-19T11:44:00.242Z,101050.37
2023-05-19T11:47:03.364Z,101045.47
2023-05-19T11:50:05.996Z,101047.66
2023-05-19T11:53:13.119Z,101055.06
2023-05-19T11:56:15.603Z,101050.91
2023-05-19T11:59:18.330Z,101046.19
2023-05-19T12:02:26.023Z,101047.53
2023-05-19T12:05:29.364Z,101043.94
2023-05-19T12:08:31.941Z,101036.91
2023-05-19T12:11:34.789Z,101031.62
2023-05-19T12:14:37.790Z,101021.78
2023-05-19T12:17:41.126Z,101022.94
2023-05-19T12:20:44.198Z,101025.91
2023-05-19T12:23:47.217Z,101025.47
2023-05-19T12:26:50.466Z,101024.06
2023-05-19T12:29:55.637Z,101017.22
2023-05-19T12:32:58.346Z,101011.34
2023-05-19T12:36:01.406Z,101005.50
2023-05-19T12:39:06.146Z,101002.91
2023-05-19T12:42:10.921Z,100990.34
2023-05-19T12:45:13.679Z,100988.22
2023-05-19T12:48:17.196Z,100993.75
2023-05-19T12:51:20.140Z,100976.25
2023-05-19T12:54:23.574Z,100978.00
2023-05-19T12:57:26.693Z,100982.78
2023-05-19T13:00:32.418Z,100973.28
2023-05-19T13:03:41.872Z,100967.31
2023-05-19T13:06:44.877Z,100976.22
2023-05-19T13:09:48.207Z,100978.03
2023-05-19T13:12:51.859Z,100967.66
2023-05-19T13:15:54.220Z,100961.25
2023-05-19T13:18:57.042Z,100966.66
2023-05-19T13:21:59.739Z,100955.66
2023-05-19T13:25:06.322Z,100951.41
2023-05-19T13:28:09.713Z,100957.00
2023-05-19T13:31:12.411Z,100954.12
2023-05-19T13:34:14.903Z,100951.53
2023-05-19T13:37:17.777Z,100944.81
2023-05-19T13:40:20.377Z,100945.91
2023-05-19T13:43:23.130Z,100927.81
2023-05-19T13:46:36.623Z,100934.12
2023-05-19T13:49:47.221Z,100932.56
2023-05-19T13:52:49.696Z,100927.66
2023-05-19T13:55:55.111Z,100923.97
2023-05-19T13:58:57.893Z,100929.22
2023-05-19T14:02:00.982Z,100929.09
2023-05-19T14:05:04.494Z,100925.88
2023-05-19T14:08:06.866Z,100922.16
2023-05-19T14:11:09.467Z,100924.34
2023-05-19T14:14:11.881Z,100922.31
2023-05-19T14:17:14.511Z,100917.47
2023-05-19T14:20:17.048Z,100919.31
2023-05-19T14:23:21.459Z,100911.47
2023-05-19T14:26:23.996Z,100915.19
2023-05-19T14:29:26.693Z,100917.69
2023-05-19T14:32:30.407Z,100908.66
2023-05-19T14:35:33.402Z,100911.72
2023-05-19T14:38:36.369Z,100904.87
2023-05-19T14:41:39.002Z,100909.44
2023-05-19T14:44:41.435Z,100906.00
2023-05-19T14:47:44.210Z,100902.75
2023-05-19T14:50:48.324Z,100902.66
2023-05-19T14:53:51.379Z,100901.50
2023-05-19T14:56:53.772Z,100903.06
2023-05-19T14:59:58.869Z,100897.87
2023-05-19T15:03:01.429Z,100896.03
2023-05-19T15:06:08.013Z,100889.97
2023-05-19T15:09:15.361Z,100906.44
2023-05-19T15:12:19.118Z,100896.69
2023-05-19T15:15:21.524Z,100894.63
2023-05-19T15:18:24.196Z,100892.38
2023-05-19T15:21:26.664Z,100892.06
2023-05-19T15:24:29.904Z,100893.06
2023-05-19T15:27:32.301Z,100900.66
2023-05-19T15:30:37.610Z,100891.97
2023-05-19T15:33:40.223Z,100893.25
2023-05-19T15:36:45.445Z,100886.91
2023-05-19T15:39:47.902Z,100884.94
2023-05-19T15:42:50.826Z,100891.41
